Midnight Sun — CFG7615 — position and weather

sailwx.info

Track history (hours):
 
Tides and Currents Weather Stations Pressure Air Temp Water Temp Dewpoint Dewpoint Depression Visibility Wind Speed Wind Dir Waves Ship Positions

Midnight Sun

Last reported at 2016-Jul-26 17:26 UTC. Time now 2016-Jul-26 17:58 UTC.
Position N 50°07' W 124°44'.

Length 25 m.

Type: Pleasure craft. MMSI: 316001152.

Date/timePositionNaut miles runAvg speedWind from/ knotsBaromVisibWave heightAir tempDewpointWater temp
2016-Jul-26 17:26N 50°07' W 124°44'0 0.0
2016-Jul-26 16:32N 50°07' W 124°44'0 0.0
2016-Jul-26 15:32N 50°07' W 124°44'0 0.0
2016-Jul-26 14:32N 50°07' W 124°44'0 0.0
2016-Jul-26 13:32N 50°07' W 124°44'0 0.0
2016-Jul-26 12:32N 50°07' W 124°44'0 0.0
2016-Jul-26 11:32N 50°07' W 124°44'0 0.0
2016-Jul-26 10:26N 50°07' W 124°44'7 0.5
2016-Jul-25 21:33N 50°02' W 124°50'8 8.2
2016-Jul-25 20:33N 49°55' W 124°42'27 1.2
2016-Jul-24 21:21N 49°38' W 124°10'8 8.6
2016-Jul-24 20:24N 49°33' W 124°01'7 8.1
2016-Jul-24 19:33N 49°28' W 123°53'10 9.1
2016-Jul-24 18:29N 49°24' W 123°40'8 9.1
2016-Jul-24 17:33N 49°20' W 123°28'9 8.8
2016-Jul-24 16:33N 49°19' W 123°14'5 4.5
2016-Jul-24 15:31N 49°18' W 123°08'0 0.0
2016-Jul-24 14:31N 49°18' W 123°08'0 0.0
2016-Jul-24 13:31N 49°18' W 123°08'0 0.0
2016-Jul-24 12:31N 49°18' W 123°08'0 0.0
2016-Jul-24 11:31N 49°18' W 123°08'0 0.0
2016-Jul-24 10:31N 49°18' W 123°08'0 0.0
2016-Jul-24 09:31N 49°18' W 123°08'0 0.0
2016-Jul-24 08:31N 49°18' W 123°08'0 0.0
2016-Jul-24 07:32N 49°18' W 123°08'0 0.0
2016-Jul-24 06:31N 49°18' W 123°08'0 0.0
2016-Jul-24 05:31N 49°18' W 123°08'0 0.0
2016-Jul-24 04:31N 49°18' W 123°08'0 0.0
2016-Jul-24 03:31N 49°18' W 123°08'0 0.0
2016-Jul-24 02:31N 49°18' W 123°08'0 0.0
2016-Jul-24 01:31N 49°18' W 123°08'0 0.0
2016-Jul-24 00:31N 49°18' W 123°08'0 0.0
2016-Jul-23 23:31N 49°18' W 123°08'0 0.0
2016-Jul-23 22:32N 49°18' W 123°08'0 0.0
2016-Jul-23 21:32N 49°18' W 123°08'0 0.0
2016-Jul-23 20:32N 49°18' W 123°08'0 0.0
2016-Jul-23 19:32N 49°18' W 123°08'0 0.0
2016-Jul-23 18:32N 49°18' W 123°08'0 0.0
2016-Jul-23 17:32N 49°18' W 123°08'0 0.0
2016-Jul-23 16:32N 49°18' W 123°08'0 0.0
2016-Jul-23 15:32N 49°18' W 123°08'0 0.0
2016-Jul-23 14:32N 49°18' W 123°08'0 0.0
2016-Jul-23 13:32N 49°18' W 123°08'0 0.0
2016-Jul-23 12:32N 49°18' W 123°08'0 0.0
2016-Jul-23 11:32N 49°18' W 123°08'0 0.0
2016-Jul-23 10:32N 49°18' W 123°08'0 0.0
2016-Jul-23 09:32N 49°18' W 123°08'0 0.0
2016-Jul-23 08:32N 49°18' W 123°08'0 0.0
2016-Jul-23 07:32N 49°18' W 123°08'0 0.0
2016-Jul-23 06:32N 49°18' W 123°08'0 0.0
2016-Jul-23 04:32N 49°18' W 123°08'0 0.0
2016-Jul-23 03:32N 49°18' W 123°08'0 0.0
2016-Jul-23 02:32N 49°18' W 123°08'0 0.0
2016-Jul-23 01:32N 49°18' W 123°08'0 0.0
2016-Jul-23 00:32N 49°18' W 123°08'0 0.0
2016-Jul-22 23:32N 49°18' W 123°08'0 0.0
2016-Jul-22 22:32N 49°18' W 123°08'0 0.0
2016-Jul-22 21:32N 49°18' W 123°08'0 0.0
2016-Jul-22 20:32N 49°18' W 123°08'0 0.0
2016-Jul-22 19:32N 49°18' W 123°08'0 0.0
2016-Jul-22 18:32N 49°18' W 123°08'0 0.0
2016-Jul-22 17:32N 49°18' W 123°08'0 0.0
2016-Jul-22 16:32N 49°18' W 123°08'0 0.0
2016-Jul-22 15:32N 49°18' W 123°08'0 0.0
2016-Jul-22 14:32N 49°18' W 123°08'0 0.0
2016-Jul-22 13:32N 49°18' W 123°08'0 0.0
2016-Jul-22 12:32N 49°18' W 123°08'0 0.0
2016-Jul-22 11:32N 49°18' W 123°08'0 0.0
2016-Jul-22 10:32N 49°18' W 123°08'0 0.0
2016-Jul-22 09:32N 49°18' W 123°08'0 0.0
2016-Jul-22 08:32N 49°18' W 123°08'0 0.0
2016-Jul-22 07:32N 49°18' W 123°08'0 0.0
2016-Jul-22 04:32N 49°18' W 123°08'0 0.0
2016-Jul-22 03:32N 49°18' W 123°08'0 0.0
2016-Jul-22 02:32N 49°18' W 123°08'0 0.0
2016-Jul-22 01:32N 49°18' W 123°08'0 0.0
2016-Jul-22 00:32N 49°18' W 123°08'0 0.0
2016-Jul-21 23:32N 49°18' W 123°08'0 0.0
2016-Jul-21 22:32N 49°18' W 123°08'0 0.0
2016-Jul-21 21:32N 49°18' W 123°08'0 0.0
2016-Jul-21 20:32N 49°18' W 123°08'0 0.0
2016-Jul-21 19:32N 49°18' W 123°08'0 0.0
2016-Jul-21 03:32N 49°18' W 123°08'0 0.0
2016-Jul-21 02:32N 49°18' W 123°08'0 0.0
2016-Jul-21 01:32N 49°18' W 123°08'0 0.0
2016-Jul-21 00:32N 49°18' W 123°08'0 0.0
2016-Jul-20 23:32N 49°18' W 123°08'0 0.0
2016-Jul-20 22:32N 49°18' W 123°08'0 0.0
2016-Jul-20 21:33N 49°18' W 123°08'0 0.0
2016-Jul-20 20:30N 49°18' W 123°08'0 0.0
2016-Jul-20 19:31N 49°18' W 123°08'0 0.0
2016-Jul-20 18:31N 49°18' W 123°08'0 0.0
2016-Jul-20 17:31N 49°18' W 123°08'0 0.0
2016-Jul-20 16:31N 49°18' W 123°08'0 0.0
2016-Jul-20 15:31N 49°18' W 123°08'0 0.0
2016-Jul-20 14:31N 49°18' W 123°08'0 0.0
2016-Jul-20 13:31N 49°18' W 123°08'0 0.0
2016-Jul-20 12:31N 49°18' W 123°08'0 0.0
2016-Jul-20 11:31N 49°18' W 123°08'0 0.0
2016-Jul-20 10:31N 49°18' W 123°08'0 0.0
2016-Jul-20 09:31N 49°18' W 123°08'0 0.0
2016-Jul-20 08:31N 49°18' W 123°08'0 0.0
2016-Jul-20 07:31N 49°18' W 123°08'0 0.0
2016-Jul-20 06:31N 49°18' W 123°08'0 0.0
2016-Jul-20 05:31N 49°18' W 123°08'0 0.0
2016-Jul-20 04:31N 49°18' W 123°08'0 0.0
2016-Jul-20 03:31N 49°18' W 123°08'0 0.0
2016-Jul-20 02:31N 49°18' W 123°08'0 0.0
2016-Jul-20 01:31N 49°18' W 123°08'0 0.0
2016-Jul-20 00:31N 49°18' W 123°08'0 0.0
2016-Jul-19 23:31N 49°18' W 123°08'0 0.0
2016-Jul-19 22:31N 49°18' W 123°08'0 0.0
2016-Jul-19 21:31N 49°18' W 123°08'0 0.0
2016-Jul-19 20:31N 49°18' W 123°08'0 0.0
2016-Jul-19 19:31N 49°18' W 123°08'0 0.0
2016-Jul-19 18:31N 49°18' W 123°08'0 0.0
2016-Jul-19 17:31N 49°18' W 123°08'0 0.0
2016-Jul-19 16:31N 49°18' W 123°08'0 0.0
2016-Jul-19 15:31N 49°18' W 123°08'0 0.0
2016-Jul-19 14:31N 49°18' W 123°08'0 0.0
2016-Jul-19 13:31N 49°18' W 123°08'0 0.0
2016-Jul-19 12:31N 49°18' W 123°08'0 0.0
2016-Jul-19 11:31N 49°18' W 123°08'0 0.0
2016-Jul-19 10:31N 49°18' W 123°08'0 0.0
2016-Jul-19 09:31N 49°18' W 123°08'0 0.0
2016-Jul-19 08:31N 49°18' W 123°08'0 0.0
2016-Jul-19 07:31N 49°18' W 123°08'0 0.0
2016-Jul-19 04:31N 49°18' W 123°08'0 0.0
2016-Jul-19 03:31N 49°18' W 123°08'0 0.0
2016-Jul-19 02:31N 49°18' W 123°08'0 0.0
2016-Jul-19 01:31N 49°18' W 123°08'0 0.0
2016-Jul-19 00:31N 49°18' W 123°08'0 0.0
2016-Jul-18 23:31N 49°18' W 123°08'0 0.0
2016-Jul-18 22:31N 49°18' W 123°08'0 0.0
2016-Jul-18 21:31N 49°18' W 123°08'0 0.0
2016-Jul-18 20:25N 49°18' W 123°08'0 0.0
2016-Jul-18 19:31N 49°18' W 123°08'0 0.0
2016-Jul-18 18:31N 49°18' W 123°08'0 0.0
2016-Jul-18 17:31N 49°18' W 123°08'0 0.0
2016-Jul-18 16:31N 49°18' W 123°08'0 0.0
2016-Jul-18 15:31N 49°18' W 123°08'0 0.0
2016-Jul-18 14:31N 49°18' W 123°08'0 0.0
2016-Jul-18 13:31N 49°18' W 123°08'0 0.0
2016-Jul-18 12:31N 49°18' W 123°08'0 0.0
2016-Jul-18 11:31N 49°18' W 123°08'0 0.0
2016-Jul-18 10:31N 49°18' W 123°08'0 0.0
2016-Jul-18 09:32N 49°18' W 123°08'0 0.0
2016-Jul-18 08:32N 49°18' W 123°08'0 0.0
2016-Jul-18 07:32N 49°18' W 123°08'0 0.0
2016-Jul-18 06:32N 49°18' W 123°08'0 0.0
2016-Jul-18 05:32N 49°18' W 123°08'0 0.0
2016-Jul-18 04:32N 49°18' W 123°08'0 0.0
2016-Jul-18 03:32N 49°18' W 123°08'0 0.0
2016-Jul-18 02:32N 49°18' W 123°08'0 0.0
2016-Jul-18 01:32N 49°18' W 123°08'0 0.0
2016-Jul-18 00:32N 49°18' W 123°08'0 0.0
2016-Jul-17 23:32N 49°18' W 123°08'0 0.0
2016-Jul-17 22:32N 49°18' W 123°08'0 0.0
2016-Jul-17 21:32N 49°18' W 123°08'0 0.0
2016-Jul-17 20:32N 49°18' W 123°08'0 0.0
2016-Jul-17 19:33N 49°18' W 123°08'0 0.0
2016-Jul-17 18:32N 49°18' W 123°08'0 0.0
2016-Jul-17 17:32N 49°18' W 123°08'0 0.0
2016-Jul-17 16:33N 49°18' W 123°08'0 0.0
2016-Jul-17 15:32N 49°18' W 123°08'0 0.0
2016-Jul-17 14:32N 49°18' W 123°08'0 0.0
2016-Jul-17 13:32N 49°18' W 123°08'0 0.0
2016-Jul-17 12:32N 49°18' W 123°08'0 0.0
2016-Jul-17 11:33N 49°18' W 123°08'0 0.0
2016-Jul-17 10:32N 49°18' W 123°08'0 0.0
2016-Jul-17 09:32N 49°18' W 123°08'0 0.0
2016-Jul-17 08:32N 49°18' W 123°08'0 0.0
2016-Jul-17 07:29N 49°18' W 123°08'0 0.0
2016-Jul-17 06:31N 49°18' W 123°08'0 0.0
2016-Jul-17 04:31N 49°18' W 123°08'0 0.0
2016-Jul-17 03:31N 49°18' W 123°08'0 0.0
2016-Jul-17 02:31N 49°18' W 123°08'0 0.0
2016-Jul-17 01:31N 49°18' W 123°08'0 0.0
2016-Jul-17 00:28N 49°18' W 123°08'0 0.0
2016-Jul-16 23:31N 49°18' W 123°08'0 0.0
2016-Jul-16 22:31N 49°18' W 123°08'0 0.0
2016-Jul-16 21:31N 49°18' W 123°08'0 0.0
2016-Jul-16 20:31N 49°18' W 123°08'0 0.0
2016-Jul-16 19:31N 49°18' W 123°08'0 0.0
2016-Jul-16 18:31N 49°18' W 123°08'0 0.0
2016-Jul-16 17:31N 49°18' W 123°08'  
Track history (hours):
 
Tides and Currents Weather Stations Pressure Air Temp Water Temp Dewpoint Dewpoint Depression Visibility Wind Speed Wind Dir Waves Ship Positions

Midnight Sun

Last reported at 2016-Jul-26 17:26 UTC. Time now 2016-Jul-26 17:58 UTC.
Position N 50°07' W 124°44'.

Length 25 m.

Type: Pleasure craft. MMSI: 316001152.

Date/timePositionNaut miles runAvg speedWind from/ knotsBaromVisibWave heightAir tempDewpointWater temp
2016-Jul-26 17:26N 50°07' W 124°44'0 0.0
2016-Jul-26 16:32N 50°07' W 124°44'0 0.0
2016-Jul-26 15:32N 50°07' W 124°44'0 0.0
2016-Jul-26 14:32N 50°07' W 124°44'0 0.0
2016-Jul-26 13:32N 50°07' W 124°44'0 0.0
2016-Jul-26 12:32N 50°07' W 124°44'0 0.0
2016-Jul-26 11:32N 50°07' W 124°44'0 0.0
2016-Jul-26 10:26N 50°07' W 124°44'7 0.5
2016-Jul-25 21:33N 50°02' W 124°50'8 8.2
2016-Jul-25 20:33N 49°55' W 124°42'27 1.2
2016-Jul-24 21:21N 49°38' W 124°10'8 8.6
2016-Jul-24 20:24N 49°33' W 124°01'7 8.1
2016-Jul-24 19:33N 49°28' W 123°53'10 9.1
2016-Jul-24 18:29N 49°24' W 123°40'8 9.1
2016-Jul-24 17:33N 49°20' W 123°28'9 8.8
2016-Jul-24 16:33N 49°19' W 123°14'5 4.5
2016-Jul-24 15:31N 49°18' W 123°08'0 0.0
2016-Jul-24 14:31N 49°18' W 123°08'0 0.0
2016-Jul-24 13:31N 49°18' W 123°08'0 0.0
2016-Jul-24 12:31N 49°18' W 123°08'0 0.0
2016-Jul-24 11:31N 49°18' W 123°08'0 0.0
2016-Jul-24 10:31N 49°18' W 123°08'0 0.0
2016-Jul-24 09:31N 49°18' W 123°08'0 0.0
2016-Jul-24 08:31N 49°18' W 123°08'0 0.0
2016-Jul-24 07:32N 49°18' W 123°08'0 0.0
2016-Jul-24 06:31N 49°18' W 123°08'0 0.0
2016-Jul-24 05:31N 49°18' W 123°08'0 0.0
2016-Jul-24 04:31N 49°18' W 123°08'0 0.0
2016-Jul-24 03:31N 49°18' W 123°08'0 0.0
2016-Jul-24 02:31N 49°18' W 123°08'0 0.0
2016-Jul-24 01:31N 49°18' W 123°08'0 0.0
2016-Jul-24 00:31N 49°18' W 123°08'0 0.0
2016-Jul-23 23:31N 49°18' W 123°08'0 0.0
2016-Jul-23 22:32N 49°18' W 123°08'0 0.0
2016-Jul-23 21:32N 49°18' W 123°08'0 0.0
2016-Jul-23 20:32N 49°18' W 123°08'0 0.0
2016-Jul-23 19:32N 49°18' W 123°08'0 0.0
2016-Jul-23 18:32N 49°18' W 123°08'0 0.0
2016-Jul-23 17:32N 49°18' W 123°08'0 0.0
2016-Jul-23 16:32N 49°18' W 123°08'0 0.0
2016-Jul-23 15:32N 49°18' W 123°08'0 0.0
2016-Jul-23 14:32N 49°18' W 123°08'0 0.0
2016-Jul-23 13:32N 49°18' W 123°08'0 0.0
2016-Jul-23 12:32N 49°18' W 123°08'0 0.0
2016-Jul-23 11:32N 49°18' W 123°08'0 0.0
2016-Jul-23 10:32N 49°18' W 123°08'0 0.0
2016-Jul-23 09:32N 49°18' W 123°08'0 0.0
2016-Jul-23 08:32N 49°18' W 123°08'0 0.0
2016-Jul-23 07:32N 49°18' W 123°08'0 0.0
2016-Jul-23 06:32N 49°18' W 123°08'0 0.0
2016-Jul-23 04:32N 49°18' W 123°08'0 0.0
2016-Jul-23 03:32N 49°18' W 123°08'0 0.0
2016-Jul-23 02:32N 49°18' W 123°08'0 0.0
2016-Jul-23 01:32N 49°18' W 123°08'0 0.0
2016-Jul-23 00:32N 49°18' W 123°08'0 0.0
2016-Jul-22 23:32N 49°18' W 123°08'0 0.0
2016-Jul-22 22:32N 49°18' W 123°08'0 0.0
2016-Jul-22 21:32N 49°18' W 123°08'0 0.0
2016-Jul-22 20:32N 49°18' W 123°08'0 0.0
2016-Jul-22 19:32N 49°18' W 123°08'0 0.0
2016-Jul-22 18:32N 49°18' W 123°08'0 0.0
2016-Jul-22 17:32N 49°18' W 123°08'0 0.0
2016-Jul-22 16:32N 49°18' W 123°08'0 0.0
2016-Jul-22 15:32N 49°18' W 123°08'0 0.0
2016-Jul-22 14:32N 49°18' W 123°08'0 0.0
2016-Jul-22 13:32N 49°18' W 123°08'0 0.0
2016-Jul-22 12:32N 49°18' W 123°08'0 0.0
2016-Jul-22 11:32N 49°18' W 123°08'0 0.0
2016-Jul-22 10:32N 49°18' W 123°08'0 0.0
2016-Jul-22 09:32N 49°18' W 123°08'0 0.0
2016-Jul-22 08:32N 49°18' W 123°08'0 0.0
2016-Jul-22 07:32N 49°18' W 123°08'0 0.0
2016-Jul-22 04:32N 49°18' W 123°08'0 0.0
2016-Jul-22 03:32N 49°18' W 123°08'0 0.0
2016-Jul-22 02:32N 49°18' W 123°08'0 0.0
2016-Jul-22 01:32N 49°18' W 123°08'0 0.0
2016-Jul-22 00:32N 49°18' W 123°08'0 0.0
2016-Jul-21 23:32N 49°18' W 123°08'0 0.0
2016-Jul-21 22:32N 49°18' W 123°08'0 0.0
2016-Jul-21 21:32N 49°18' W 123°08'0 0.0
2016-Jul-21 20:32N 49°18' W 123°08'0 0.0
2016-Jul-21 19:32N 49°18' W 123°08'0 0.0
2016-Jul-21 03:32N 49°18' W 123°08'0 0.0
2016-Jul-21 02:32N 49°18' W 123°08'0 0.0
2016-Jul-21 01:32N 49°18' W 123°08'0 0.0
2016-Jul-21 00:32N 49°18' W 123°08'0 0.0
2016-Jul-20 23:32N 49°18' W 123°08'0 0.0
2016-Jul-20 22:32N 49°18' W 123°08'0 0.0
2016-Jul-20 21:33N 49°18' W 123°08'0 0.0
2016-Jul-20 20:30N 49°18' W 123°08'0 0.0
2016-Jul-20 19:31N 49°18' W 123°08'0 0.0
2016-Jul-20 18:31N 49°18' W 123°08'0 0.0
2016-Jul-20 17:31N 49°18' W 123°08'0 0.0
2016-Jul-20 16:31N 49°18' W 123°08'0 0.0
2016-Jul-20 15:31N 49°18' W 123°08'0 0.0
2016-Jul-20 14:31N 49°18' W 123°08'0 0.0
2016-Jul-20 13:31N 49°18' W 123°08'0 0.0
2016-Jul-20 12:31N 49°18' W 123°08'0 0.0
2016-Jul-20 11:31N 49°18' W 123°08'0 0.0
2016-Jul-20 10:31N 49°18' W 123°08'0 0.0
2016-Jul-20 09:31N 49°18' W 123°08'0 0.0
2016-Jul-20 08:31N 49°18' W 123°08'0 0.0
2016-Jul-20 07:31N 49°18' W 123°08'0 0.0
2016-Jul-20 06:31N 49°18' W 123°08'0 0.0
2016-Jul-20 05:31N 49°18' W 123°08'0 0.0
2016-Jul-20 04:31N 49°18' W 123°08'0 0.0
2016-Jul-20 03:31N 49°18' W 123°08'0 0.0
2016-Jul-20 02:31N 49°18' W 123°08'0 0.0
2016-Jul-20 01:31N 49°18' W 123°08'0 0.0
2016-Jul-20 00:31N 49°18' W 123°08'0 0.0
2016-Jul-19 23:31N 49°18' W 123°08'0 0.0
2016-Jul-19 22:31N 49°18' W 123°08'0 0.0
2016-Jul-19 21:31N 49°18' W 123°08'0 0.0
2016-Jul-19 20:31N 49°18' W 123°08'0 0.0
2016-Jul-19 19:31N 49°18' W 123°08'0 0.0
2016-Jul-19 18:31N 49°18' W 123°08'0 0.0
2016-Jul-19 17:31N 49°18' W 123°08'0 0.0
2016-Jul-19 16:31N 49°18' W 123°08'0 0.0
2016-Jul-19 15:31N 49°18' W 123°08'0 0.0
2016-Jul-19 14:31N 49°18' W 123°08'0 0.0
2016-Jul-19 13:31N 49°18' W 123°08'0 0.0
2016-Jul-19 12:31N 49°18' W 123°08'0 0.0
2016-Jul-19 11:31N 49°18' W 123°08'0 0.0
2016-Jul-19 10:31N 49°18' W 123°08'0 0.0
2016-Jul-19 09:31N 49°18' W 123°08'0 0.0
2016-Jul-19 08:31N 49°18' W 123°08'0 0.0
2016-Jul-19 07:31N 49°18' W 123°08'0 0.0
2016-Jul-19 04:31N 49°18' W 123°08'0 0.0
2016-Jul-19 03:31N 49°18' W 123°08'0 0.0
2016-Jul-19 02:31N 49°18' W 123°08'0 0.0
2016-Jul-19 01:31N 49°18' W 123°08'0 0.0
2016-Jul-19 00:31N 49°18' W 123°08'0 0.0
2016-Jul-18 23:31N 49°18' W 123°08'0 0.0
2016-Jul-18 22:31N 49°18' W 123°08'0 0.0
2016-Jul-18 21:31N 49°18' W 123°08'0 0.0
2016-Jul-18 20:25N 49°18' W 123°08'0 0.0
2016-Jul-18 19:31N 49°18' W 123°08'0 0.0
2016-Jul-18 18:31N 49°18' W 123°08'0 0.0
2016-Jul-18 17:31N 49°18' W 123°08'0 0.0
2016-Jul-18 16:31N 49°18' W 123°08'0 0.0
2016-Jul-18 15:31N 49°18' W 123°08'0 0.0
2016-Jul-18 14:31N 49°18' W 123°08'0 0.0
2016-Jul-18 13:31N 49°18' W 123°08'0 0.0
2016-Jul-18 12:31N 49°18' W 123°08'0 0.0
2016-Jul-18 11:31N 49°18' W 123°08'0 0.0
2016-Jul-18 10:31N 49°18' W 123°08'0 0.0
2016-Jul-18 09:32N 49°18' W 123°08'0 0.0
2016-Jul-18 08:32N 49°18' W 123°08'0 0.0
2016-Jul-18 07:32N 49°18' W 123°08'0 0.0
2016-Jul-18 06:32N 49°18' W 123°08'0 0.0
2016-Jul-18 05:32N 49°18' W 123°08'0 0.0
2016-Jul-18 04:32N 49°18' W 123°08'0 0.0
2016-Jul-18 03:32N 49°18' W 123°08'0 0.0
2016-Jul-18 02:32N 49°18' W 123°08'0 0.0
2016-Jul-18 01:32N 49°18' W 123°08'0 0.0
2016-Jul-18 00:32N 49°18' W 123°08'0 0.0
2016-Jul-17 23:32N 49°18' W 123°08'0 0.0
2016-Jul-17 22:32N 49°18' W 123°08'0 0.0
2016-Jul-17 21:32N 49°18' W 123°08'0 0.0
2016-Jul-17 20:32N 49°18' W 123°08'0 0.0
2016-Jul-17 19:33N 49°18' W 123°08'0 0.0
2016-Jul-17 18:32N 49°18' W 123°08'0 0.0
2016-Jul-17 17:32N 49°18' W 123°08'0 0.0
2016-Jul-17 16:33N 49°18' W 123°08'0 0.0
2016-Jul-17 15:32N 49°18' W 123°08'0 0.0
2016-Jul-17 14:32N 49°18' W 123°08'0 0.0
2016-Jul-17 13:32N 49°18' W 123°08'0 0.0
2016-Jul-17 12:32N 49°18' W 123°08'0 0.0
2016-Jul-17 11:33N 49°18' W 123°08'0 0.0
2016-Jul-17 10:32N 49°18' W 123°08'0 0.0
2016-Jul-17 09:32N 49°18' W 123°08'0 0.0
2016-Jul-17 08:32N 49°18' W 123°08'0 0.0
2016-Jul-17 07:29N 49°18' W 123°08'0 0.0
2016-Jul-17 06:31N 49°18' W 123°08'0 0.0
2016-Jul-17 04:31N 49°18' W 123°08'0 0.0
2016-Jul-17 03:31N 49°18' W 123°08'0 0.0
2016-Jul-17 02:31N 49°18' W 123°08'0 0.0
2016-Jul-17 01:31N 49°18' W 123°08'0 0.0
2016-Jul-17 00:28N 49°18' W 123°08'0 0.0
2016-Jul-16 23:31N 49°18' W 123°08'0 0.0
2016-Jul-16 22:31N 49°18' W 123°08'0 0.0
2016-Jul-16 21:31N 49°18' W 123°08'0 0.0
2016-Jul-16 20:31N 49°18' W 123°08'0 0.0
2016-Jul-16 19:31N 49°18' W 123°08'0 0.0
2016-Jul-16 18:31N 49°18' W 123°08'0 0.0
2016-Jul-16 17:31N 49°18' W 123°08'  

Dump ship's entire track history